Ora Direzione Vento Velocita' Vento Media Vento Raffica Max. Temperatura Wind Chill Pioggia Pressione
15:09:05.0311 °(NW)8.7 Kts6.1 Kts21.7 Kts14.2 °C11.7 °C0.0 mm907.4 Hpa
14:47:52.0303 °(WNW)7.0 Kts8.7 Kts21.7 Kts14.0 °C9.5 °C0.0 mm907.9 Hpa
14:28:44.0307 °(NW)6.1 Kts9.6 Kts21.7 Kts14.1 °C9.2 °C0.0 mm908.7 Hpa
14:07:23.0300 °(WNW)7.8 Kts9.6 Kts21.7 Kts13.9 °C9.0 °C0.0 mm907.9 Hpa
13:45:44.0309 °(NW)14.8 Kts16.5 Kts21.7 Kts13.4 °C5.4 °C0.0 mm908.5 Hpa
13:28:44.0308 °(NW)18.2 Kts18.2 Kts21.7 Kts13.3 °C4.7 °C0.0 mm908.2 Hpa
13:07:34.0312 °(NW)20.0 Kts18.2 Kts20.9 Kts13.4 °C4.8 °C0.0 mm908.8 Hpa
12:48:26.0311 °(NW)18.2 Kts18.2 Kts20.9 Kts13.4 °C4.8 °C0.0 mm908.8 Hpa
12:27:09.0306 °(NW)15.6 Kts10.4 Kts18.2 Kts13.8 °C8.4 °C0.0 mm908.5 Hpa
12:08:05.0313 °(NW)8.7 Kts10.4 Kts18.2 Kts13.5 °C8.1 °C0.0 mm908.5 Hpa
11:48:34.0306 °(NW)12.2 Kts7.8 Kts18.2 Kts13.3 °C9.3 °C0.0 mm907.2 Hpa
11:27:24.0304 °(NW)11.3 Kts9.6 Kts18.2 Kts12.9 °C7.8 °C0.0 mm908.5 Hpa
11:08:13.0288 °(WNW)7.8 Kts9.6 Kts18.2 Kts12.7 °C7.4 °C0.0 mm908.1 Hpa
10:48:57.0284 °(WNW)7.8 Kts8.7 Kts18.2 Kts12.4 °C7.5 °C0.0 mm908.7 Hpa
10:27:23.0283 °(WNW)10.4 Kts9.6 Kts18.2 Kts12.2 °C6.8 °C0.0 mm908.2 Hpa
10:07:56.0298 °(WNW)8.7 Kts10.4 Kts17.4 Kts12.1 °C6.3 °C0.0 mm908.5 Hpa
09:48:13.0308 °(NW)9.6 Kts10.4 Kts17.4 Kts12.0 °C6.2 °C0.0 mm909.5 Hpa
09:28:56.0302 °(WNW)13.0 Kts10.4 Kts16.5 Kts12.0 °C6.2 °C0.0 mm908.0 Hpa
09:07:24.0298 °(WNW)7.8 Kts7.8 Kts15.6 Kts12.0 °C7.7 °C0.0 mm907.8 Hpa
08:47:53.0293 °(WNW)4.3 Kts7.8 Kts15.6 Kts12.0 °C7.7 °C0.0 mm908.4 Hpa